Details From CYVM - QIKIQTARJUAQ
To BGBW - Narsarsuaq
Flight Number -
Tags generated
Created
Modified
Stats Distance 632 nm / 1,170 km
Max Altitude 35,000 ft / 10,668 m
Waypoints 8
Social Downloads 0
Likes 0
Share VATSIM

Download

Looking for another format? Having issues loading an existing format? Contact us
Advertisement - Login to hide

Notes

Basic altitude profile: - Ascent Rate: 2500ft/min - Ascent Speed: 250kts - Cruise Altitude: 35000ft - Cruise Speed: 420kts - Descent Rate: 1500ft/min - Descent Speed: 250kts Options: - Use NATs: yes - Use PACOTS: yes - Use low airways: yes - Use high airways: yes

Route

CYVM DARUB 6600N05500W MA 5E59 KU W26 NA BGBW

ID Type Via Altitude Latitude Longitude Leg Dist Tot Dist Heading (true) Name
O CYVM APT - 0 ft / 0 m 67.54624˚ -64.03071˚ - 0 nm - QIKIQTARJUAQ
DARUB FIX - 35,000 ft / 10,668 m 67.00000˚ -60.00000˚ 99 nm 99 nm 107° / 111° -
6600N05500W LATLON - 35,000 ft / 10,668 m 66.00000˚ -55.00000˚ 133 nm 232 nm 114° / 119° -
MA NDB - 35,000 ft / 10,668 m 65.40667˚ -52.92100˚ 62 nm 295 nm 124° / 126° MANIITSOQ NDB
KU NDB 5E59 (AWY-HI) 35,000 ft / 10,668 m 64.07000˚ -52.01306˚ 83 nm 379 nm 163° / 164° KOOK ISLANDS NDB
KITAP FIX W26 (AWY-LO) 19,500 ft / 5,944 m 62.41167˚ -47.99583˚ 147 nm 526 nm 131° / 134° -
NA NDB W26 (AWY-LO) 9,500 ft / 2,896 m 61.17074˚ -45.41295˚ 104 nm 630 nm 134° / 137° NARSARSUAQ NDB
O BGBW APT - 0 ft / 0 m 61.16052˚ -45.42598˚ 0 nm 631 nm 212° / 212° Narsarsuaq

Altitude Profile

Advertisement - Login to hide

Weather


0- 5 10 15 20 25 30 35+ Temperature / ° C

Clouds and Precipitation
Forecast for 2018-05-23 12:00 UTC. Updated 41 minutes ago

Ground ~20,000 ft ~40,000 ft Winds

CYVM

Details ICAO CYVM (YVM)
Name QIKIQTARJUAQ
Region Canada
Timezone Unknown (UTC+0.0)
Stats Elevation 21 ft / 6 m (AMSL)
Location 67.546236° -64.030706°
Runways 1
Magnetic Variation 31.938° W

METAR

CYVM 231100Z 33007KT 15SM VCSH FEW011 FEW030 BKN042 M03/M07 A2970 RMK SC1SC2SC5 SC TR SLP058

Decode

TAF

TAF CYVM 230638Z 2307/2319 36010KT P6SM BKN040 TEMPO 2307/2319 3SM -SHSN BKN020 RMK FCST BASED ON AUTO OBS. NXT FCST BY 231300Z

Decode

Departure Runways

ID Width Length Bearing (true) Bearing (mag) Surface Threshold Offset Overrun Length
03T 100 ft / 30 m 3,741 ft / 1,140 m 33.20° 65.14° Gravel 0 ft / 0 m 0 ft / 0 m
21T 100 ft / 30 m 3,741 ft / 1,140 m 213.21° 245.15° Gravel 0 ft / 0 m 0 ft / 0 m

BGBW

Details ICAO BGBW (UAK)
Name Narsarsuaq
Region Greenland
Timezone America/Godthab (UTC-2.0)
Stats Elevation 112 ft / 34 m (AMSL)
Location 61.160516° -45.425976°
Runways 1
Magnetic Variation 22.774° W

METAR

BGBW 231050Z 20012KT 9999 -SN FEW016 SCT022 BKN045 01/M04 Q0999

Decode

TAF

Not found

Destination Runways

ID Width Length Bearing (true) Bearing (mag) Surface Threshold Offset Overrun Length
07 148 ft / 45 m 5,921 ft / 1,805 m 40.57° 63.34° Concrete 0 ft / 0 m 0 ft / 0 m
25 148 ft / 45 m 5,921 ft / 1,805 m 220.58° 243.35° Concrete 0 ft / 0 m 279 ft / 85 m